sensor_id;sensor_type;location;lat;lon;timestamp;pressure;altitude;pressure_sealevel;temperature
22269;BMP280;11303;50.772;19.670;2023-11-21T00:01:02;97850.16;;;7.17
22269;BMP280;11303;50.772;19.670;2023-11-21T00:03:05;97855.66;;;7.16
22269;BMP280;11303;50.772;19.670;2023-11-21T00:05:09;97854.56;;;7.17
22269;BMP280;11303;50.772;19.670;2023-11-21T00:07:11;97858.56;;;7.14
22269;BMP280;11303;50.772;19.670;2023-11-21T00:09:14;97865.56;;;7.14
22269;BMP280;11303;50.772;19.670;2023-11-21T00:11:22;97857.06;;;7.13
22269;BMP280;11303;50.772;19.670;2023-11-21T00:13:23;97867.38;;;7.13
22269;BMP280;11303;50.772;19.670;2023-11-21T00:15:25;97866.97;;;7.11
22269;BMP280;11303;50.772;19.670;2023-11-21T00:17:28;97868.81;;;7.11
22269;BMP280;11303;50.772;19.670;2023-11-21T00:19:29;97869.56;;;7.11
22269;BMP280;11303;50.772;19.670;2023-11-21T00:21:31;97871.41;;;7.11
22269;BMP280;11303;50.772;19.670;2023-11-21T00:23:33;97872.47;;;7.10
22269;BMP280;11303;50.772;19.670;2023-11-21T00:25:35;97876.13;;;7.09
22269;BMP280;11303;50.772;19.670;2023-11-21T00:27:38;97882.41;;;7.08
22269;BMP280;11303;50.772;19.670;2023-11-21T00:29:40;97887.56;;;7.08
22269;BMP280;11303;50.772;19.670;2023-11-21T00:31:42;97875.38;;;7.08
22269;BMP280;11303;50.772;19.670;2023-11-21T00:33:43;97886.06;;;7.07
22269;BMP280;11303;50.772;19.670;2023-11-21T00:35:46;97881.97;;;7.06
22269;BMP280;11303;50.772;19.670;2023-11-21T00:37:48;97876.78;;;7.06
22269;BMP280;11303;50.772;19.670;2023-11-21T00:39:51;97878.63;;;7.05
22269;BMP280;11303;50.772;19.670;2023-11-21T00:41:53;97879.38;;;7.06
22269;BMP280;11303;50.772;19.670;2023-11-21T00:43:54;97880.50;;;7.05
22269;BMP280;11303;50.772;19.670;2023-11-21T00:45:56;97878.25;;;7.03
22269;BMP280;11303;50.772;19.670;2023-11-21T00:47:58;97875.66;;;7.03
22269;BMP280;11303;50.772;19.670;2023-11-21T00:50:00;97883.75;;;7.01
22269;BMP280;11303;50.772;19.670;2023-11-21T00:52:02;97887.41;;;7.00
22269;BMP280;11303;50.772;19.670;2023-11-21T00:54:04;97881.47;;;7.00
22269;BMP280;11303;50.772;19.670;2023-11-21T00:56:06;97878.13;;;6.99
22269;BMP280;11303;50.772;19.670;2023-11-21T00:58:10;97885.13;;;6.99
22269;BMP280;11303;50.772;19.670;2023-11-21T01:00:12;97886.97;;;6.98
22269;BMP280;11303;50.772;19.670;2023-11-21T01:02:18;97886.97;;;6.98
22269;BMP280;11303;50.772;19.670;2023-11-21T01:04:20;97887.72;;;6.99
22269;BMP280;11303;50.772;19.670;2023-11-21T01:06:22;97888.78;;;6.98
22269;BMP280;11303;50.772;19.670;2023-11-21T01:08:24;97891.38;;;6.98
22269;BMP280;11303;50.772;19.670;2023-11-21T01:10:25;97890.63;;;6.97
22269;BMP280;11303;50.772;19.670;2023-11-21T01:12:27;97889.13;;;6.96
22269;BMP280;11303;50.772;19.670;2023-11-21T01:14:29;97887.63;;;6.95
22269;BMP280;11303;50.772;19.670;2023-11-21T01:16:31;97880.97;;;6.94
22269;BMP280;11303;50.772;19.670;2023-11-21T01:18:36;97884.63;;;6.93
22269;BMP280;11303;50.772;19.670;2023-11-21T01:20:37;97886.44;;;6.93
22269;BMP280;11303;50.772;19.670;2023-11-21T01:22:39;97887.97;;;6.94
22269;BMP280;11303;50.772;19.670;2023-11-21T01:24:41;97882.03;;;6.93
22269;BMP280;11303;50.772;19.670;2023-11-21T01:26:43;97887.97;;;6.94
22269;BMP280;11303;50.772;19.670;2023-11-21T01:28:47;97886.44;;;6.93
22269;BMP280;11303;50.772;19.670;2023-11-21T01:30:50;97889.78;;;6.93
22269;BMP280;11303;50.772;19.670;2023-11-21T01:32:52;97887.19;;;6.93
22269;BMP280;11303;50.772;19.670;2023-11-21T01:34:54;97889.78;;;6.93
22269;BMP280;11303;50.772;19.670;2023-11-21T01:36:59;97893.13;;;6.94
22269;BMP280;11303;50.772;19.670;2023-11-21T01:39:01;97886.88;;;6.95
22269;BMP280;11303;50.772;19.670;2023-11-21T01:41:02;97887.19;;;6.93
22269;BMP280;11303;50.772;19.670;2023-11-21T01:43:04;97892.03;;;6.95
22269;BMP280;11303;50.772;19.670;2023-11-21T01:45:06;97886.13;;;6.94
22269;BMP280;11303;50.772;19.670;2023-11-21T01:47:09;97900.56;;;6.95
22269;BMP280;11303;50.772;19.670;2023-11-21T01:49:11;97892.34;;;6.93
22269;BMP280;11303;50.772;19.670;2023-11-21T01:51:15;97893.88;;;6.94
22269;BMP280;11303;50.772;19.670;2023-11-21T01:53:17;97891.28;;;6.94
22269;BMP280;11303;50.772;19.670;2023-11-21T01:55:19;97890.22;;;6.95
22269;BMP280;11303;50.772;19.670;2023-11-21T01:57:24;97899.78;;;6.95
22269;BMP280;11303;50.772;19.670;2023-11-21T01:59:27;97894.63;;;6.95
22269;BMP280;11303;50.772;19.670;2023-11-21T02:01:29;97897.97;;;6.95
22269;BMP280;11303;50.772;19.670;2023-11-21T02:03:31;97895.38;;;6.95
22269;BMP280;11303;50.772;19.670;2023-11-21T02:05:32;97895.38;;;6.95
22269;BMP280;11303;50.772;19.670;2023-11-21T02:07:34;97889.78;;;6.93
22269;BMP280;11303;50.772;19.670;2023-11-21T02:09:36;97898.31;;;6.94
22269;BMP280;11303;50.772;19.670;2023-11-21T02:11:44;97902.38;;;6.95
22269;BMP280;11303;50.772;19.670;2023-11-21T02:13:45;97901.97;;;6.93
22269;BMP280;11303;50.772;19.670;2023-11-21T02:15:48;97904.53;;;6.93
22269;BMP280;11303;50.772;19.670;2023-11-21T02:17:54;97900.13;;;6.93
22269;BMP280;11303;50.772;19.670;2023-11-21T02:19:56;97907.88;;;6.93
22269;BMP280;11303;50.772;19.670;2023-11-21T02:21:59;97903.06;;;6.92
22269;BMP280;11303;50.772;19.670;2023-11-21T02:24:02;97902.31;;;6.91
22269;BMP280;11303;50.772;19.670;2023-11-21T02:26:04;97901.97;;;6.93
22269;BMP280;11303;50.772;19.670;2023-11-21T02:28:06;97898.66;;;6.92
22269;BMP280;11303;50.772;19.670;2023-11-21T02:30:09;97903.81;;;6.92
22269;BMP280;11303;50.772;19.670;2023-11-21T02:32:13;97897.88;;;6.92
22269;BMP280;11303;50.772;19.670;2023-11-21T02:34:17;97895.31;;;6.92
22269;BMP280;11303;50.772;19.670;2023-11-21T02:36:19;97905.63;;;6.92
22269;BMP280;11303;50.772;19.670;2023-11-21T02:38:23;97910.81;;;6.92
22269;BMP280;11303;50.772;19.670;2023-11-21T02:40:24;97915.22;;;6.91
22269;BMP280;11303;50.772;19.670;2023-11-21T02:42:28;97902.63;;;6.90
22269;BMP280;11303;50.772;19.670;2023-11-21T02:44:30;97910.38;;;6.90
22269;BMP280;11303;50.772;19.670;2023-11-21T02:46:33;97911.13;;;6.90
22269;BMP280;11303;50.772;19.670;2023-11-21T02:48:35;97911.13;;;6.90
22269;BMP280;11303;50.772;19.670;2023-11-21T02:50:37;97915.56;;;6.90
22269;BMP280;11303;50.772;19.670;2023-11-21T02:52:39;97918.88;;;6.90
22269;BMP280;11303;50.772;19.670;2023-11-21T02:54:44;97915.97;;;6.92
22269;BMP280;11303;50.772;19.670;2023-11-21T02:56:45;97927.78;;;6.93
22269;BMP280;11303;50.772;19.670;2023-11-21T02:58:47;97925.56;;;6.91
22269;BMP280;11303;50.772;19.670;2023-11-21T03:00:49;97919.31;;;6.92
22269;BMP280;11303;50.772;19.670;2023-11-21T03:02:51;97924.13;;;6.94
22269;BMP280;11303;50.772;19.670;2023-11-21T03:04:53;97924.88;;;6.94
22269;BMP280;11303;50.772;19.670;2023-11-21T03:06:55;97931.56;;;6.95
22269;BMP280;11303;50.772;19.670;2023-11-21T03:08:56;97923.03;;;6.95
22269;BMP280;11303;50.772;19.670;2023-11-21T03:10:58;97930.03;;;6.94
22269;BMP280;11303;50.772;19.670;2023-11-21T03:13:00;97931.13;;;6.93
22269;BMP280;11303;50.772;19.670;2023-11-21T03:15:02;97930.38;;;6.93
22269;BMP280;11303;50.772;19.670;2023-11-21T03:17:04;97940.31;;;6.91
22269;BMP280;11303;50.772;19.670;2023-11-21T03:19:06;97932.91;;;6.89
22269;BMP280;11303;50.772;19.670;2023-11-21T03:21:09;97941.28;;;6.86
22269;BMP280;11303;50.772;19.670;2023-11-21T03:23:11;97933.09;;;6.84
22269;BMP280;11303;50.772;19.670;2023-11-21T03:25:13;97929.38;;;6.81
22269;BMP280;11303;50.772;19.670;2023-11-21T03:27:14;97931.50;;;6.79
22269;BMP280;11303;50.772;19.670;2023-11-21T03:29:16;97933.34;;;6.79
22269;BMP280;11303;50.772;19.670;2023-11-21T03:31:18;97942.50;;;6.76
22269;BMP280;11303;50.772;19.670;2023-11-21T03:33:20;97941.78;;;6.76
22269;BMP280;11303;50.772;19.670;2023-11-21T03:35:22;97940.25;;;6.75
22269;BMP280;11303;50.772;19.670;2023-11-21T03:37:24;97945.00;;;6.73
22269;BMP280;11303;50.772;19.670;2023-11-21T03:39:26;97946.84;;;6.72
22269;BMP280;11303;50.772;19.670;2023-11-21T03:41:28;97959.75;;;6.72
22269;BMP280;11303;50.772;19.670;2023-11-21T03:43:29;97954.91;;;6.71
22269;BMP280;11303;50.772;19.670;2023-11-21T03:45:32;97957.50;;;6.71
22269;BMP280;11303;50.772;19.670;2023-11-21T03:47:33;97958.56;;;6.70
22269;BMP280;11303;50.772;19.670;2023-11-21T03:49:35;97957.81;;;6.69
22269;BMP280;11303;50.772;19.670;2023-11-21T03:51:37;97961.16;;;6.70
22269;BMP280;11303;50.772;19.670;2023-11-21T03:53:39;97961.88;;;6.70
22269;BMP280;11303;50.772;19.670;2023-11-21T03:55:41;97958.88;;;6.68
22269;BMP280;11303;50.772;19.670;2023-11-21T03:57:42;97956.63;;;6.67
22269;BMP280;11303;50.772;19.670;2023-11-21T03:59:44;97958.47;;;6.66
22269;BMP280;11303;50.772;19.670;2023-11-21T04:01:46;97962.53;;;6.67
22269;BMP280;11303;50.772;19.670;2023-11-21T04:03:50;97965.13;;;6.67
22269;BMP280;11303;50.772;19.670;2023-11-21T04:05:52;97961.47;;;6.68
22269;BMP280;11303;50.772;19.670;2023-11-21T04:07:54;97957.81;;;6.69
22269;BMP280;11303;50.772;19.670;2023-11-21T04:09:56;97961.16;;;6.70
22269;BMP280;11303;50.772;19.670;2023-11-21T04:11:58;97957.81;;;6.69
22269;BMP280;11303;50.772;19.670;2023-11-21T04:14:00;97965.13;;;6.67
22269;BMP280;11303;50.772;19.670;2023-11-21T04:16:02;97961.06;;;6.66
22269;BMP280;11303;50.772;19.670;2023-11-21T04:18:04;97963.53;;;6.62
22269;BMP280;11303;50.772;19.670;2023-11-21T04:20:08;97965.81;;;6.64
22269;BMP280;11303;50.772;19.670;2023-11-21T04:22:11;97967.31;;;6.65
22269;BMP280;11303;50.772;19.670;2023-11-21T04:24:13;97970.63;;;6.66
22269;BMP280;11303;50.772;19.670;2023-11-21T04:26:15;97974.31;;;6.64
22269;BMP280;11303;50.772;19.670;2023-11-21T04:28:17;97976.91;;;6.64
22269;BMP280;11303;50.772;19.670;2023-11-21T04:30:19;97971.38;;;6.66
22269;BMP280;11303;50.772;19.670;2023-11-21T04:32:20;97977.66;;;6.65
22269;BMP280;11303;50.772;19.670;2023-11-21T04:34:22;97969.47;;;6.63
22269;BMP280;11303;50.772;19.670;2023-11-21T04:36:24;97976.44;;;6.62
22269;BMP280;11303;50.772;19.670;2023-11-21T04:38:25;97979.34;;;6.61
22269;BMP280;11303;50.772;19.670;2023-11-21T04:40:27;97974.19;;;6.61
22269;BMP280;11303;50.772;19.670;2023-11-21T04:42:29;97975.28;;;6.60
22269;BMP280;11303;50.772;19.670;2023-11-21T04:44:30;97968.19;;;6.57
22269;BMP280;11303;50.772;19.670;2023-11-21T04:46:32;97971.84;;;6.56
22269;BMP280;11303;50.772;19.670;2023-11-21T04:48:34;97977.31;;;6.54
22269;BMP280;11303;50.772;19.670;2023-11-21T04:50:36;97974.34;;;6.52
22269;BMP280;11303;50.772;19.670;2023-11-21T04:52:38;97971.34;;;6.50
22269;BMP280;11303;50.772;19.670;2023-11-21T04:54:39;97973.47;;;6.48
22269;BMP280;11303;50.772;19.670;2023-11-21T04:56:41;97973.47;;;6.48
22269;BMP280;11303;50.772;19.670;2023-11-21T04:58:43;97970.47;;;6.46
22269;BMP280;11303;50.772;19.670;2023-11-21T05:00:45;97974.13;;;6.45
22269;BMP280;11303;50.772;19.670;2023-11-21T05:02:47;97971.88;;;6.43
22269;BMP280;11303;50.772;19.670;2023-11-21T05:04:49;97970.72;;;6.41
22269;BMP280;11303;50.772;19.670;2023-11-21T05:06:51;97982.09;;;6.40
22269;BMP280;11303;50.772;19.670;2023-11-21T05:08:53;97987.25;;;6.40
22269;BMP280;11303;50.772;19.670;2023-11-21T05:10:56;97988.00;;;6.40
22269;BMP280;11303;50.772;19.670;2023-11-21T05:12:58;97996.53;;;6.41
22269;BMP280;11303;50.772;19.670;2023-11-21T05:15:00;97988.78;;;6.41
22269;BMP280;11303;50.772;19.670;2023-11-21T05:17:02;97996.53;;;6.41
22269;BMP280;11303;50.772;19.670;2023-11-21T05:19:05;97997.25;;;6.41
22269;BMP280;11303;50.772;19.670;2023-11-21T05:21:08;97996.19;;;6.42
22269;BMP280;11303;50.772;19.670;2023-11-21T05:23:09;97996.94;;;6.43
22269;BMP280;11303;50.772;19.670;2023-11-21T05:25:11;97996.63;;;6.44
22269;BMP280;11303;50.772;19.670;2023-11-21T05:27:13;98000.72;;;6.45
22269;BMP280;11303;50.772;19.670;2023-11-21T05:29:15;98010.41;;;6.49
22269;BMP280;11303;50.772;19.670;2023-11-21T05:31:17;98007.81;;;6.49
22269;BMP280;11303;50.772;19.670;2023-11-21T05:33:19;98008.16;;;6.47
22269;BMP280;11303;50.772;19.670;2023-11-21T05:35:21;98014.38;;;6.46
22269;BMP280;11303;50.772;19.670;2023-11-21T05:37:23;98018.78;;;6.45
22269;BMP280;11303;50.772;19.670;2023-11-21T05:39:24;98018.78;;;6.45
22269;BMP280;11303;50.772;19.670;2023-11-21T05:41:26;98016.22;;;6.45
22269;BMP280;11303;50.772;19.670;2023-11-21T05:43:28;98020.59;;;6.45
22269;BMP280;11303;50.772;19.670;2023-11-21T05:45:32;98014.69;;;6.44
22269;BMP280;11303;50.772;19.670;2023-11-21T05:47:33;98022.13;;;6.46
22269;BMP280;11303;50.772;19.670;2023-11-21T05:49:36;98022.88;;;6.47
22269;BMP280;11303;50.772;19.670;2023-11-21T05:51:38;98023.63;;;6.47
22269;BMP280;11303;50.772;19.670;2023-11-21T05:53:40;98026.22;;;6.47
22269;BMP280;11303;50.772;19.670;2023-11-21T05:55:42;98031.38;;;6.47
22269;BMP280;11303;50.772;19.670;2023-11-21T05:57:44;98036.53;;;6.47
22269;BMP280;11303;50.772;19.670;2023-11-21T05:59:46;98038.03;;;6.48
22269;BMP280;11303;50.772;19.670;2023-11-21T06:01:47;98041.72;;;6.47
22269;BMP280;11303;50.772;19.670;2023-11-21T06:03:49;98038.66;;;6.45
22269;BMP280;11303;50.772;19.670;2023-11-21T06:05:51;98042.34;;;6.44
22269;BMP280;11303;50.772;19.670;2023-11-21T06:07:54;98047.84;;;6.42
22269;BMP280;11303;50.772;19.670;2023-11-21T06:09:56;98049.31;;;6.43
22269;BMP280;11303;50.772;19.670;2023-11-21T06:11:58;98043.00;;;6.41
22269;BMP280;11303;50.772;19.670;2023-11-21T06:14:00;98053.63;;;6.39
22269;BMP280;11303;50.772;19.670;2023-11-21T06:16:01;98055.13;;;6.40
22269;BMP280;11303;50.772;19.670;2023-11-21T06:18:03;98051.47;;;6.41
22269;BMP280;11303;50.772;19.670;2023-11-21T06:20:06;98053.31;;;6.41
22269;BMP280;11303;50.772;19.670;2023-11-21T06:22:11;98056.56;;;6.38
22269;BMP280;11303;50.772;19.670;2023-11-21T06:24:13;98063.53;;;6.37
22269;BMP280;11303;50.772;19.670;2023-11-21T06:26:16;98063.19;;;6.39
22269;BMP280;11303;50.772;19.670;2023-11-21T06:28:18;98073.19;;;6.40
22269;BMP280;11303;50.772;19.670;2023-11-21T06:30:20;98068.34;;;6.39
22269;BMP280;11303;50.772;19.670;2023-11-21T06:32:23;98073.88;;;6.37
22269;BMP280;11303;50.772;19.670;2023-11-21T06:34:25;98067.97;;;6.37
22269;BMP280;11303;50.772;19.670;2023-11-21T06:36:27;98076.03;;;6.35
22269;BMP280;11303;50.772;19.670;2023-11-21T06:38:29;98073.88;;;6.37
22269;BMP280;11303;50.772;19.670;2023-11-21T06:40:33;98071.28;;;6.37
22269;BMP280;11303;50.772;19.670;2023-11-21T06:42:36;98077.63;;;6.40
22269;BMP280;11303;50.772;19.670;2023-11-21T06:44:40;98080.88;;;6.37
22269;BMP280;11303;50.772;19.670;2023-11-21T06:46:42;98077.22;;;6.38
22269;BMP280;11303;50.772;19.670;2023-11-21T06:48:44;98075.03;;;6.40
22269;BMP280;11303;50.772;19.670;2023-11-21T06:50:46;98079.03;;;6.37
22269;BMP280;11303;50.772;19.670;2023-11-21T06:52:48;98081.19;;;6.35
22269;BMP280;11303;50.772;19.670;2023-11-21T06:54:50;98083.44;;;6.37
22269;BMP280;11303;50.772;19.670;2023-11-21T06:56:52;98078.28;;;6.37
22269;BMP280;11303;50.772;19.670;2023-11-21T06:58:54;98084.63;;;6.39
22269;BMP280;11303;50.772;19.670;2023-11-21T07:00:56;98088.69;;;6.40
22269;BMP280;11303;50.772;19.670;2023-11-21T07:02:59;98089.25;;;6.46
22269;BMP280;11303;50.772;19.670;2023-11-21T07:05:01;98087.09;;;6.48
22269;BMP280;11303;50.772;19.670;2023-11-21T07:07:04;98094.81;;;6.48
22269;BMP280;11303;50.772;19.670;2023-11-21T07:09:05;98085.78;;;6.54
22269;BMP280;11303;50.772;19.670;2023-11-21T07:11:07;98083.09;;;6.63
22269;BMP280;11303;50.772;19.670;2023-11-21T07:13:09;98091.03;;;6.70
22269;BMP280;11303;50.772;19.670;2023-11-21T07:15:14;98092.97;;;6.73
22269;BMP280;11303;50.772;19.670;2023-11-21T07:17:15;98082.75;;;6.77
22269;BMP280;11303;50.772;19.670;2023-11-21T07:19:18;98084.25;;;6.78
22269;BMP280;11303;50.772;19.670;2023-11-21T07:21:21;98089.00;;;6.76
22269;BMP280;11303;50.772;19.670;2023-11-21T07:23:23;98089.41;;;6.78
22269;BMP280;11303;50.772;19.670;2023-11-21T07:25:25;98096.63;;;6.85
22269;BMP280;11303;50.772;19.670;2023-11-21T07:27:27;98096.06;;;6.91
22269;BMP280;11303;50.772;19.670;2023-11-21T07:29:30;98098.72;;;6.95
22269;BMP280;11303;50.772;19.670;2023-11-21T07:31:31;98100.00;;;7.01
22269;BMP280;11303;50.772;19.670;2023-11-21T07:33:37;98099.00;;;7.06
22269;BMP280;11303;50.772;19.670;2023-11-21T07:35:38;98099.97;;;7.13
22269;BMP280;11303;50.772;19.670;2023-11-21T07:37:40;98104.59;;;7.20
22269;BMP280;11303;50.772;19.670;2023-11-21T07:39:42;98105.34;;;7.20
22269;BMP280;11303;50.772;19.670;2023-11-21T07:41:44;98095.09;;;7.24
22269;BMP280;11303;50.772;19.670;2023-11-21T07:43:50;98101.13;;;7.28
22269;BMP280;11303;50.772;19.670;2023-11-21T07:45:52;98105.72;;;7.35
22269;BMP280;11303;50.772;19.670;2023-11-21T07:47:54;98108.16;;;7.44
22269;BMP280;11303;50.772;19.670;2023-11-21T07:49:57;98106.84;;;7.50
22269;BMP280;11303;50.772;19.670;2023-11-21T07:51:58;98102.81;;;7.65
22269;BMP280;11303;50.772;19.670;2023-11-21T07:54:00;98099.47;;;7.80
22269;BMP280;11303;50.772;19.670;2023-11-21T07:56:06;98097.88;;;7.91
22269;BMP280;11303;50.772;19.670;2023-11-21T07:58:09;98098.88;;;8.03
22269;BMP280;11303;50.772;19.670;2023-11-21T08:00:11;98104.91;;;8.07
22269;BMP280;11303;50.772;19.670;2023-11-21T08:02:14;98104.06;;;7.87
22269;BMP280;11303;50.772;19.670;2023-11-21T08:04:17;98111.44;;;7.56
22269;BMP280;11303;50.772;19.670;2023-11-21T08:06:20;98114.06;;;7.44
22269;BMP280;11303;50.772;19.670;2023-11-21T08:08:22;98110.88;;;7.35
22269;BMP280;11303;50.772;19.670;2023-11-21T08:10:23;98119.75;;;7.34
22269;BMP280;11303;50.772;19.670;2023-11-21T08:12:26;98122.19;;;7.30
22269;BMP280;11303;50.772;19.670;2023-11-21T08:14:29;98126.69;;;7.17
22269;BMP280;11303;50.772;19.670;2023-11-21T08:16:30;98130.81;;;7.06
22269;BMP280;11303;50.772;19.670;2023-11-21T08:18:33;98133.94;;;6.99
22269;BMP280;11303;50.772;19.670;2023-11-21T08:20:35;98137.13;;;7.09
22269;BMP280;11303;50.772;19.670;2023-11-21T08:22:40;98130.88;;;7.22
22269;BMP280;11303;50.772;19.670;2023-11-21T08:24:42;98135.06;;;7.27
22269;BMP280;11303;50.772;19.670;2023-11-21T08:26:44;98144.84;;;7.21
22269;BMP280;11303;50.772;19.670;2023-11-21T08:28:45;98137.91;;;7.09
22269;BMP280;11303;50.772;19.670;2023-11-21T08:30:49;98137.28;;;7.00
22269;BMP280;11303;50.772;19.670;2023-11-21T08:32:50;98137.81;;;6.93
22269;BMP280;11303;50.772;19.670;2023-11-21T08:34:55;98139.31;;;6.94
22269;BMP280;11303;50.772;19.670;2023-11-21T08:36:57;98143.31;;;6.92
22269;BMP280;11303;50.772;19.670;2023-11-21T08:38:59;98140.53;;;6.85
22269;BMP280;11303;50.772;19.670;2023-11-21T08:41:00;98135.56;;;6.79
22269;BMP280;11303;50.772;19.670;2023-11-21T08:43:02;98134.81;;;6.79
22269;BMP280;11303;50.772;19.670;2023-11-21T08:45:06;98146.03;;;6.83
22269;BMP280;11303;50.772;19.670;2023-11-21T08:47:10;98139.66;;;6.80
22269;BMP280;11303;50.772;19.670;2023-11-21T08:49:12;98145.06;;;6.75
22269;BMP280;11303;50.772;19.670;2023-11-21T08:51:14;98144.09;;;6.68
22269;BMP280;11303;50.772;19.670;2023-11-21T08:53:15;98148.63;;;6.58
22269;BMP280;11303;50.772;19.670;2023-11-21T08:55:18;98144.94;;;6.59
22269;BMP280;11303;50.772;19.670;2023-11-21T08:57:25;98148.63;;;6.58
22269;BMP280;11303;50.772;19.670;2023-11-21T08:59:26;98155.28;;;6.59
22269;BMP280;11303;50.772;19.670;2023-11-21T09:01:31;98153.03;;;6.58
22269;BMP280;11303;50.772;19.670;2023-11-21T09:03:34;98151.09;;;6.55
22269;BMP280;11303;50.772;19.670;2023-11-21T09:05:39;98153.25;;;6.53
22269;BMP280;11303;50.772;19.670;2023-11-21T09:07:41;98158.84;;;6.42
22269;BMP280;11303;50.772;19.670;2023-11-21T09:09:43;98153.22;;;6.40
22269;BMP280;11303;50.772;19.670;2023-11-21T09:11:45;98156.03;;;6.35
22269;BMP280;11303;50.772;19.670;2023-11-21T09:13:47;98147.31;;;6.40
22269;BMP280;11303;50.772;19.670;2023-11-21T09:15:49;98149.25;;;6.43
22269;BMP280;11303;50.772;19.670;2023-11-21T09:17:51;98151.84;;;6.43
22269;BMP280;11303;50.772;19.670;2023-11-21T09:19:53;98147.97;;;6.37
22269;BMP280;11303;50.772;19.670;2023-11-21T09:21:54;98154.41;;;6.31
22269;BMP280;11303;50.772;19.670;2023-11-21T09:23:58;98151.25;;;6.25
22269;BMP280;11303;50.772;19.670;2023-11-21T09:26:00;98154.31;;;6.27
22269;BMP280;11303;50.772;19.670;2023-11-21T09:28:03;98150.63;;;6.28
22269;BMP280;11303;50.772;19.670;2023-11-21T09:30:09;98151.59;;;6.23
22269;BMP280;11303;50.772;19.670;2023-11-21T09:32:12;98150.13;;;6.22
22269;BMP280;11303;50.772;19.670;2023-11-21T09:34:15;98151.50;;;6.20
22269;BMP280;11303;50.772;19.670;2023-11-21T09:36:18;98153.34;;;6.19
22269;BMP280;11303;50.772;19.670;2023-11-21T09:38:20;98150.28;;;6.17
22269;BMP280;11303;50.772;19.670;2023-11-21T09:40:22;98153.44;;;6.11
22269;BMP280;11303;50.772;19.670;2023-11-21T09:42:37;98157.06;;;6.10
22269;BMP280;11303;50.772;19.670;2023-11-21T09:46:59;98152.88;;;6.17
22269;BMP280;11303;50.772;19.670;2023-11-21T09:49:02;98146.97;;;6.17
22269;BMP280;11303;50.772;19.670;2023-11-21T09:51:08;98152.56;;;6.19
22269;BMP280;11303;50.772;19.670;2023-11-21T09:53:13;98155.59;;;6.21
22269;BMP280;11303;50.772;19.670;2023-11-21T09:55:20;98149.13;;;6.15
22269;BMP280;11303;50.772;19.670;2023-11-21T09:57:24;98156.72;;;6.11
22269;BMP280;11303;50.772;19.670;2023-11-21T09:59:30;98156.00;;;6.11
22269;BMP280;11303;50.772;19.670;2023-11-21T10:01:37;98157.19;;;6.13
22269;BMP280;11303;50.772;19.670;2023-11-21T10:03:39;98155.78;;;6.16
22269;BMP280;11303;50.772;19.670;2023-11-21T10:05:44;98156.66;;;6.20
22269;BMP280;11303;50.772;19.670;2023-11-21T10:07:49;98168.19;;;6.22
22269;BMP280;11303;50.772;19.670;2023-11-21T10:09:52;98161.59;;;6.25
22269;BMP280;11303;50.772;19.670;2023-11-21T10:11:55;98163.09;;;6.26
22269;BMP280;11303;50.772;19.670;2023-11-21T10:13:59;98164.16;;;6.25
22269;BMP280;11303;50.772;19.670;2023-11-21T10:16:02;98165.38;;;6.28
22269;BMP280;11303;50.772;19.670;2023-11-21T10:18:07;98159.16;;;6.29
22269;BMP280;11303;50.772;19.670;2023-11-21T10:20:12;98156.56;;;6.29
22269;BMP280;11303;50.772;19.670;2023-11-21T10:22:15;98161.84;;;6.32
22269;BMP280;11303;50.772;19.670;2023-11-21T10:24:17;98164.00;;;6.30
22269;BMP280;11303;50.772;19.670;2023-11-21T10:26:20;98157.94;;;6.26
22269;BMP280;11303;50.772;19.670;2023-11-21T10:28:35;98172.25;;;6.23
22269;BMP280;11303;50.772;19.670;2023-11-21T10:30:39;98166.88;;;6.16
22269;BMP280;11303;50.772;19.670;2023-11-21T10:32:42;98166.97;;;6.07
22269;BMP280;11303;50.772;19.670;2023-11-21T10:34:55;98174.13;;;6.02
22269;BMP280;11303;50.772;19.670;2023-11-21T10:36:58;98166.22;;;5.86
22269;BMP280;11303;50.772;19.670;2023-11-21T10:38:59;98170.09;;;5.80
22269;BMP280;11303;50.772;19.670;2023-11-21T10:41:02;98168.47;;;5.75
22269;BMP280;11303;50.772;19.670;2023-11-21T10:43:06;98178.78;;;5.75
22269;BMP280;11303;50.772;19.670;2023-11-21T10:45:12;98174.81;;;5.78
22269;BMP280;11303;50.772;19.670;2023-11-21T10:47:16;98175.00;;;5.73
22269;BMP280;11303;50.772;19.670;2023-11-21T10:49:20;98178.81;;;5.66
22269;BMP280;11303;50.772;19.670;2023-11-21T10:51:22;98186.91;;;5.65
22269;BMP280;11303;50.772;19.670;2023-11-21T10:53:28;98192.06;;;5.65
22269;BMP280;11303;50.772;19.670;2023-11-21T10:55:32;98188.59;;;5.61
22269;BMP280;11303;50.772;19.670;2023-11-21T10:57:34;98194.38;;;5.58
22269;BMP280;11303;50.772;19.670;2023-11-21T10:59:36;98197.72;;;5.58
22269;BMP280;11303;50.772;19.670;2023-11-21T11:01:38;98201.19;;;5.62
22269;BMP280;11303;50.772;19.670;2023-11-21T11:03:41;98199.78;;;5.65
22269;BMP280;11303;50.772;19.670;2023-11-21T11:05:44;98188.59;;;5.61
22269;BMP280;11303;50.772;19.670;2023-11-21T11:07:59;98180.88;;;5.61
22269;BMP280;11303;50.772;19.670;2023-11-21T11:10:04;98189.53;;;5.56
22269;BMP280;11303;50.772;19.670;2023-11-21T11:12:06;98186.78;;;5.61
22269;BMP280;11303;50.772;19.670;2023-11-21T11:14:11;98181.75;;;5.65
22269;BMP280;11303;50.772;19.670;2023-11-21T11:16:15;98178.06;;;5.66
22269;BMP280;11303;50.772;19.670;2023-11-21T11:18:19;98178.34;;;5.73
22269;BMP280;11303;50.772;19.670;2023-11-21T11:20:24;98173.34;;;5.68
22269;BMP280;11303;50.772;19.670;2023-11-21T11:22:37;98174.63;;;5.62
22269;BMP280;11303;50.772;19.670;2023-11-21T11:34:44;98179.41;;;5.72
22269;BMP280;11303;50.772;19.670;2023-11-21T11:38:54;98173.75;;;5.79
22269;BMP280;11303;50.772;19.670;2023-11-21T11:41:01;98171.16;;;5.79
22269;BMP280;11303;50.772;19.670;2023-11-21T11:43:07;98180.06;;;5.81
22269;BMP280;11303;50.772;19.670;2023-11-21T11:45:18;98177.50;;;5.81
22269;BMP280;11303;50.772;19.670;2023-11-21T11:49:30;98179.34;;;5.60
22269;BMP280;11303;50.772;19.670;2023-11-21T11:51:33;98195.56;;;5.60
22269;BMP280;11303;50.772;19.670;2023-11-21T11:53:39;98194.38;;;5.58
22269;BMP280;11303;50.772;19.670;2023-11-21T11:55:41;98200.59;;;5.57
22269;BMP280;11303;50.772;19.670;2023-11-21T11:57:44;98209.09;;;5.57
22269;BMP280;11303;50.772;19.670;2023-11-21T12:00:14;98200.09;;;5.63
22269;BMP280;11303;50.772;19.670;2023-11-21T12:02:26;98206.06;;;5.55
22269;BMP280;11303;50.772;19.670;2023-11-21T12:04:29;98205.00;;;5.56